createdAt,value
2017-09-15T00:02:25.853Z,93.80
2017-09-15T00:04:53.428Z,93.30
2017-09-15T00:07:21.796Z,93.20
2017-09-15T00:09:51.776Z,93.20
2017-09-15T00:12:19.348Z,93.10
2017-09-15T00:14:46.939Z,93.20
2017-09-15T00:17:15.277Z,93.00
2017-09-15T00:19:42.897Z,93.20
2017-09-15T00:22:11.253Z,93.20
2017-09-15T00:24:39.587Z,93.20
2017-09-15T00:27:07.388Z,93.20
2017-09-15T00:29:34.960Z,93.10
2017-09-15T00:32:03.327Z,93.10
2017-09-15T00:34:30.921Z,93.10
2017-09-15T00:36:59.273Z,93.20
2017-09-15T00:39:27.653Z,93.30
2017-09-15T00:41:55.220Z,93.30
2017-09-15T00:44:23.596Z,93.30
2017-09-15T00:46:52.789Z,93.30
2017-09-15T00:49:20.360Z,93.30
2017-09-15T00:51:48.180Z,93.30
2017-09-15T00:54:15.749Z,93.30
2017-09-15T00:56:43.456Z,93.30
2017-09-15T00:59:11.787Z,93.20
2017-09-15T01:01:39.359Z,93.20
2017-09-15T01:04:07.145Z,93.30
2017-09-15T01:06:34.732Z,93.30
2017-09-15T01:09:03.094Z,93.30
2017-09-15T01:11:31.489Z,93.30
2017-09-15T01:13:59.863Z,93.30
2017-09-15T01:16:28.204Z,93.40
2017-09-15T01:18:55.804Z,93.40
2017-09-15T01:21:24.137Z,93.30
2017-09-15T01:23:54.345Z,93.40
2017-09-15T01:26:21.952Z,93.30
2017-09-15T01:28:51.037Z,93.20
2017-09-15T01:31:18.630Z,93.20
2017-09-15T01:33:46.960Z,93.20
2017-09-15T01:36:14.556Z,93.20
2017-09-15T01:38:42.888Z,93.20
2017-09-15T01:41:10.472Z,93.10
2017-09-15T01:43:38.037Z,93.10
2017-09-15T01:46:05.628Z,93.20
2017-09-15T01:48:33.959Z,93.20
2017-09-15T01:51:01.856Z,93.20
2017-09-15T01:53:29.425Z,93.20
2017-09-15T01:55:57.764Z,93.30
2017-09-15T01:58:25.460Z,93.20
2017-09-15T02:00:53.113Z,93.30
2017-09-15T02:03:20.677Z,93.70
2017-09-15T02:05:48.268Z,93.40
2017-09-15T02:08:15.854Z,93.40
2017-09-15T02:10:43.599Z,93.40
2017-09-15T02:13:11.169Z,93.40
2017-09-15T02:15:38.735Z,93.30
2017-09-15T02:18:06.452Z,93.30
2017-09-15T02:20:34.782Z,93.00
2017-09-15T02:23:02.349Z,93.20
2017-09-15T02:25:29.973Z,93.20
2017-09-15T02:27:58.309Z,93.20
2017-09-15T02:30:25.890Z,93.20
2017-09-15T02:32:53.480Z,93.20
2017-09-15T02:35:21.051Z,93.20
2017-09-15T02:37:48.639Z,93.20
2017-09-15T02:40:16.212Z,93.30
2017-09-15T02:42:43.807Z,93.30
2017-09-15T02:45:12.152Z,93.30
2017-09-15T02:47:39.746Z,93.30
2017-09-15T02:50:08.096Z,93.30
2017-09-15T02:52:35.673Z,93.30
2017-09-15T02:55:04.773Z,93.30
2017-09-15T02:57:33.840Z,93.20
2017-09-15T03:00:01.521Z,93.20
2017-09-15T03:02:29.088Z,93.30
2017-09-15T03:04:56.685Z,93.40
2017-09-15T03:07:24.257Z,93.30
2017-09-15T03:09:52.996Z,93.70
2017-09-15T03:12:20.660Z,94.00
2017-09-15T03:14:48.226Z,93.70
2017-09-15T03:17:17.004Z,93.70
2017-09-15T03:19:46.080Z,93.70
2017-09-15T03:22:13.647Z,93.60
2017-09-15T03:24:41.236Z,93.60
2017-09-15T03:27:09.776Z,93.60
2017-09-15T03:29:37.368Z,93.60
2017-09-15T03:32:04.940Z,93.70
2017-09-15T03:34:33.296Z,94.30
2017-09-15T03:37:00.864Z,94.00
2017-09-15T03:39:29.216Z,94.40
2017-09-15T03:41:56.780Z,94.40
2017-09-15T03:44:24.373Z,94.30
2017-09-15T03:46:53.429Z,94.10
2017-09-15T03:49:21.016Z,94.10
2017-09-15T03:51:48.583Z,94.10
2017-09-15T03:54:16.917Z,94.40
2017-09-15T03:56:44.505Z,94.70
2017-09-15T03:59:12.064Z,94.30
2017-09-15T04:01:39.657Z,94.40
2017-09-15T04:04:07.990Z,94.30
2017-09-15T04:06:35.585Z,94.30
2017-09-15T04:09:04.096Z,94.20
2017-09-15T04:11:32.466Z,94.20
2017-09-15T04:14:00.024Z,94.30
2017-09-15T04:16:28.388Z,94.30
2017-09-15T04:18:55.951Z,94.30
2017-09-15T04:21:23.511Z,94.20
2017-09-15T04:23:52.892Z,93.60
2017-09-15T04:26:20.464Z,93.60
2017-09-15T04:28:48.823Z,93.10
2017-09-15T04:31:16.388Z,93.10
2017-09-15T04:33:43.964Z,93.00
2017-09-15T04:36:11.557Z,93.40
2017-09-15T04:38:39.884Z,93.50
2017-09-15T04:41:07.471Z,93.50
2017-09-15T04:43:35.132Z,93.70
2017-09-15T04:46:02.725Z,93.80
2017-09-15T04:48:31.052Z,93.60
2017-09-15T04:50:58.643Z,93.60
2017-09-15T04:53:26.294Z,93.50
2017-09-15T04:55:54.885Z,93.60
2017-09-15T04:58:22.539Z,93.70
2017-09-15T05:00:52.525Z,93.80
2017-09-15T05:03:20.141Z,93.80
2017-09-15T05:05:48.487Z,93.10
2017-09-15T05:08:16.052Z,93.10
2017-09-15T05:10:43.654Z,92.90
2017-09-15T05:13:12.012Z,92.90
2017-09-15T05:15:39.579Z,93.00
2017-09-15T05:18:08.257Z,92.70
2017-09-15T05:20:36.601Z,92.60
2017-09-15T05:23:04.193Z,92.60
2017-09-15T05:25:32.784Z,92.70
2017-09-15T05:28:00.436Z,92.70
2017-09-15T05:30:28.096Z,92.60
2017-09-15T05:32:55.692Z,92.60
2017-09-15T05:35:23.261Z,92.50
2017-09-15T05:37:51.707Z,92.30
2017-09-15T05:40:19.280Z,92.30
2017-09-15T05:42:47.607Z,91.80
2017-09-15T05:45:15.196Z,91.80
2017-09-15T05:47:42.766Z,92.10
2017-09-15T05:50:10.592Z,92.00
2017-09-15T05:52:38.159Z,92.00
2017-09-15T05:55:05.752Z,91.50
2017-09-15T05:57:33.321Z,91.30
2017-09-15T06:00:01.893Z,91.10
2017-09-15T06:02:29.456Z,91.10
2017-09-15T06:04:57.112Z,90.90
2017-09-15T06:07:24.716Z,90.10
2017-09-15T06:09:53.676Z,90.10
2017-09-15T06:12:21.340Z,90.10
2017-09-15T06:14:48.935Z,89.70
2017-09-15T06:17:16.505Z,89.60
2017-09-15T06:19:44.078Z,90.20
2017-09-15T06:22:11.714Z,90.60
2017-09-15T06:24:39.288Z,91.00
2017-09-15T06:27:06.896Z,90.10
2017-09-15T06:29:34.489Z,90.60
2017-09-15T06:32:02.838Z,90.70
2017-09-15T06:34:30.454Z,90.70
2017-09-15T06:36:58.024Z,89.60
2017-09-15T06:39:25.824Z,90.00
2017-09-15T06:41:53.428Z,85.70
2017-09-15T06:44:21.053Z,84.70
2017-09-15T06:46:48.623Z,81.40
2017-09-15T06:49:17.192Z,76.10
2017-09-15T06:51:44.755Z,76.10
2017-09-15T06:54:12.325Z,75.90
2017-09-15T06:56:39.912Z,77.30
2017-09-15T06:59:07.539Z,74.90
2017-09-15T07:01:35.136Z,74.40
2017-09-15T07:04:02.708Z,77.60
2017-09-15T07:06:30.269Z,73.70
2017-09-15T07:08:57.993Z,73.20
2017-09-15T07:11:26.328Z,72.80
2017-09-15T07:13:53.896Z,73.10
2017-09-15T07:16:21.480Z,73.60
2017-09-15T07:18:49.153Z,74.80
2017-09-15T07:21:16.809Z,76.40
2017-09-15T07:23:44.371Z,77.60
2017-09-15T07:26:12.036Z,77.10
2017-09-15T07:28:39.696Z,73.20
2017-09-15T07:31:07.264Z,72.80
2017-09-15T07:33:35.948Z,71.10
2017-09-15T07:36:03.519Z,70.80
2017-09-15T07:38:31.848Z,71.10
2017-09-15T07:40:59.436Z,71.00
2017-09-15T07:43:27.001Z,69.50
2017-09-15T07:45:55.361Z,68.30
2017-09-15T07:48:23.080Z,68.20
2017-09-15T07:50:51.624Z,67.60
2017-09-15T07:53:19.191Z,67.40
2017-09-15T07:55:46.852Z,60.80
2017-09-15T07:58:15.184Z,65.30
2017-09-15T08:00:42.792Z,65.30
2017-09-15T08:03:11.173Z,69.70
2017-09-15T08:05:38.837Z,69.70
2017-09-15T08:08:06.504Z,68.40
2017-09-15T08:10:34.078Z,71.30
2017-09-15T08:13:02.421Z,63.50
2017-09-15T08:15:30.024Z,63.50
2017-09-15T08:17:58.357Z,58.90
2017-09-15T08:20:25.936Z,58.90
2017-09-15T08:22:53.638Z,56.20
2017-09-15T08:25:21.263Z,56.10
2017-09-15T08:27:49.752Z,53.00
2017-09-15T08:30:18.328Z,50.30
2017-09-15T08:32:45.888Z,50.20
2017-09-15T08:35:13.556Z,49.20
2017-09-15T08:37:41.311Z,48.80
2017-09-15T08:40:10.413Z,53.50
2017-09-15T08:42:37.989Z,53.40
2017-09-15T08:45:06.524Z,52.30
2017-09-15T08:47:34.089Z,52.30
2017-09-15T08:50:01.652Z,53.80
2017-09-15T08:52:29.243Z,52.00
2017-09-15T08:54:58.316Z,52.40
2017-09-15T08:57:25.901Z,53.10
2017-09-15T08:59:54.376Z,54.90
2017-09-15T09:02:21.944Z,54.80
2017-09-15T09:04:50.948Z,56.60
2017-09-15T09:07:19.316Z,55.00
2017-09-15T09:09:46.951Z,54.90
2017-09-15T09:12:14.532Z,58.30
2017-09-15T09:14:42.883Z,55.30
2017-09-15T09:17:10.449Z,55.30
2017-09-15T09:19:38.033Z,53.20
2017-09-15T09:22:05.596Z,54.60
2017-09-15T09:24:33.960Z,54.50
2017-09-15T09:27:01.532Z,54.50
2017-09-15T09:29:29.097Z,51.20
2017-09-15T09:31:56.701Z,54.10
2017-09-15T09:34:24.268Z,54.80
2017-09-15T09:36:52.705Z,54.00
2017-09-15T09:39:20.464Z,56.70
2017-09-15T09:41:48.024Z,57.50
2017-09-15T09:44:15.584Z,59.00
2017-09-15T09:46:43.936Z,60.50
2017-09-15T09:49:11.533Z,60.50
2017-09-15T09:51:40.208Z,56.20
2017-09-15T09:54:07.781Z,55.90
2017-09-15T09:56:36.119Z,54.90
2017-09-15T09:59:03.728Z,54.90
2017-09-15T10:01:32.056Z,54.70
2017-09-15T10:03:59.644Z,54.80
2017-09-15T10:06:27.232Z,53.20
2017-09-15T10:08:55.589Z,46.20
2017-09-15T10:11:23.201Z,46.10
2017-09-15T10:13:51.600Z,43.00
2017-09-15T10:16:19.183Z,42.90
2017-09-15T10:18:46.856Z,45.70
2017-09-15T10:21:14.521Z,45.20
2017-09-15T10:23:42.877Z,47.10
2017-09-15T10:26:10.443Z,47.10
2017-09-15T10:28:38.116Z,49.00
2017-09-15T10:31:06.448Z,48.10
2017-09-15T10:33:34.161Z,48.10
2017-09-15T10:36:01.729Z,48.40
2017-09-15T10:38:29.287Z,49.40
2017-09-15T10:40:56.984Z,44.10
2017-09-15T10:43:24.544Z,44.40
2017-09-15T10:45:52.640Z,46.60
2017-09-15T10:48:20.224Z,48.00
2017-09-15T10:50:47.784Z,50.00
2017-09-15T10:53:15.373Z,48.20
2017-09-15T10:55:43.736Z,49.90
2017-09-15T10:58:17.045Z,49.90
2017-09-15T11:00:44.608Z,49.20
2017-09-15T11:03:12.972Z,50.90
2017-09-15T11:05:40.536Z,50.20
2017-09-15T11:08:08.286Z,47.00
2017-09-15T11:10:35.857Z,47.90
2017-09-15T11:13:03.529Z,48.80
2017-09-15T11:15:31.897Z,47.00
2017-09-15T11:17:59.469Z,46.20
2017-09-15T11:20:27.056Z,44.70
2017-09-15T11:22:54.620Z,42.10
2017-09-15T11:25:22.447Z,45.90
2017-09-15T11:27:51.659Z,43.70
2017-09-15T11:30:19.221Z,43.60
2017-09-15T11:32:47.577Z,44.00
2017-09-15T11:35:15.257Z,43.30
2017-09-15T11:37:42.912Z,44.20
2017-09-15T11:40:11.249Z,43.70
2017-09-15T11:42:38.816Z,43.60
2017-09-15T11:45:06.729Z,43.10
2017-09-15T11:47:34.296Z,45.20
2017-09-15T11:50:02.624Z,41.80
2017-09-15T11:52:30.208Z,41.70
2017-09-15T11:54:57.789Z,40.00
2017-09-15T11:57:26.177Z,39.30
2017-09-15T11:59:54.505Z,37.20
2017-09-15T12:02:22.108Z,37.30
2017-09-15T12:04:51.667Z,38.60
2017-09-15T12:07:19.232Z,38.50
2017-09-15T12:09:47.032Z,38.00
2017-09-15T12:12:14.696Z,37.00
2017-09-15T12:14:42.357Z,35.40
2017-09-15T12:17:09.953Z,38.40
2017-09-15T12:19:38.300Z,36.50
2017-09-15T12:22:05.869Z,36.40
2017-09-15T12:24:33.475Z,37.10
2017-09-15T12:27:01.042Z,38.40
2017-09-15T12:29:28.614Z,37.90
2017-09-15T12:31:56.200Z,37.50
2017-09-15T12:34:23.767Z,39.30
2017-09-15T12:36:52.695Z,38.30
2017-09-15T12:39:20.256Z,39.20
2017-09-15T12:41:47.821Z,39.70
2017-09-15T12:44:15.404Z,37.50
2017-09-15T12:46:42.970Z,38.70
2017-09-15T12:49:10.568Z,38.60
2017-09-15T12:51:38.221Z,36.20
2017-09-15T12:54:06.068Z,36.30
2017-09-15T12:56:33.655Z,38.60
2017-09-15T12:59:01.220Z,38.70
2017-09-15T13:01:28.876Z,38.40
2017-09-15T13:03:56.537Z,39.60
2017-09-15T13:06:24.133Z,39.40
2017-09-15T13:08:53.672Z,40.20
2017-09-15T13:11:21.341Z,39.90
2017-09-15T13:13:50.485Z,38.90
2017-09-15T13:16:18.811Z,40.80
2017-09-15T13:18:46.417Z,40.70
2017-09-15T13:21:14.756Z,41.20
2017-09-15T13:23:42.316Z,41.20
2017-09-15T13:26:09.916Z,41.30
2017-09-15T13:28:38.279Z,43.90
2017-09-15T13:31:05.948Z,43.90
2017-09-15T13:33:33.536Z,43.70
2017-09-15T13:36:01.177Z,43.10
2017-09-15T13:38:29.768Z,44.30
2017-09-15T13:41:02.488Z,42.50
2017-09-15T13:43:30.085Z,42.40
2017-09-15T13:45:57.672Z,42.40
2017-09-15T13:48:30.706Z,44.40
2017-09-15T13:50:58.307Z,44.20
2017-09-15T13:53:25.972Z,44.50
2017-09-15T13:55:53.575Z,45.80
2017-09-15T13:58:21.135Z,47.50
2017-09-15T14:00:48.701Z,46.30
2017-09-15T14:03:20.357Z,45.10
2017-09-15T14:05:47.915Z,45.90
2017-09-15T14:08:15.916Z,46.30
2017-09-15T14:10:43.506Z,47.80
2017-09-15T14:13:11.157Z,48.00
2017-09-15T14:15:38.767Z,49.40
2017-09-15T14:18:06.384Z,50.90
2017-09-15T14:20:33.948Z,50.90
2017-09-15T14:23:01.541Z,50.90
2017-09-15T14:25:29.104Z,51.40
2017-09-15T14:27:56.829Z,51.30
2017-09-15T14:30:25.157Z,52.70
2017-09-15T14:32:52.792Z,52.80
2017-09-15T14:35:21.157Z,54.00
2017-09-15T14:37:50.410Z,52.50
2017-09-15T14:40:17.977Z,52.50
2017-09-15T14:42:45.570Z,52.60
2017-09-15T14:45:14.237Z,51.80
2017-09-15T14:47:41.836Z,51.90
2017-09-15T14:50:10.197Z,54.60
2017-09-15T14:52:37.869Z,54.60
2017-09-15T14:55:05.469Z,54.80
2017-09-15T14:57:33.038Z,55.30
2017-09-15T15:00:00.613Z,55.10
2017-09-15T15:02:28.204Z,56.10
2017-09-15T15:04:55.768Z,54.80
2017-09-15T15:07:23.399Z,53.50
2017-09-15T15:09:52.736Z,51.60
2017-09-15T15:12:20.573Z,51.50
2017-09-15T15:14:48.257Z,51.10
2017-09-15T15:17:15.920Z,51.30
2017-09-15T15:19:43.580Z,50.80
2017-09-15T15:22:11.148Z,50.00
2017-09-15T15:24:38.708Z,51.50
2017-09-15T15:27:06.327Z,53.00
2017-09-15T15:29:33.889Z,53.20
2017-09-15T15:32:01.488Z,53.70
2017-09-15T15:34:29.076Z,52.90
2017-09-15T15:36:57.403Z,51.10
2017-09-15T15:39:25.377Z,51.10
2017-09-15T15:41:52.965Z,50.20
2017-09-15T15:44:20.556Z,49.40
2017-09-15T15:46:48.116Z,49.50
2017-09-15T15:49:15.845Z,49.30
2017-09-15T15:51:43.407Z,48.90
2017-09-15T15:54:10.978Z,49.30
2017-09-15T15:56:39.336Z,51.40
2017-09-15T15:59:06.915Z,51.40
2017-09-15T16:01:35.264Z,51.70
2017-09-15T16:04:02.833Z,51.70
2017-09-15T16:06:30.608Z,52.30
2017-09-15T16:08:58.273Z,52.00
2017-09-15T16:11:25.842Z,51.20
2017-09-15T16:13:54.524Z,49.30
2017-09-15T16:16:22.860Z,50.30
2017-09-15T16:18:52.493Z,49.40
2017-09-15T16:21:20.179Z,49.30
2017-09-15T16:23:48.568Z,49.50
2017-09-15T16:26:16.960Z,50.30
2017-09-15T16:28:44.525Z,50.30
2017-09-15T16:31:12.096Z,50.50
2017-09-15T16:33:39.684Z,51.70
2017-09-15T16:36:07.244Z,51.20
2017-09-15T16:38:40.800Z,52.10
2017-09-15T16:41:14.873Z,53.30
2017-09-15T16:43:48.440Z,53.30
2017-09-15T16:46:21.749Z,54.00
2017-09-15T16:48:56.716Z,55.40
2017-09-15T16:51:24.282Z,56.70
2017-09-15T16:53:53.477Z,56.60
2017-09-15T16:56:21.494Z,58.00
2017-09-15T16:58:50.006Z,58.80
2017-09-15T17:01:17.585Z,60.30
2017-09-15T17:03:46.660Z,62.30
2017-09-15T17:06:14.244Z,62.30
2017-09-15T17:08:41.908Z,63.00
2017-09-15T17:11:09.568Z,63.70
2017-09-15T17:13:38.325Z,65.50
2017-09-15T17:16:06.066Z,65.60
2017-09-15T17:18:33.670Z,66.00
2017-09-15T17:21:01.269Z,67.00
2017-09-15T17:23:29.601Z,68.30
2017-09-15T17:25:57.510Z,68.20
2017-09-15T17:28:25.099Z,68.50
2017-09-15T17:30:52.927Z,68.80
2017-09-15T17:33:21.291Z,70.00
2017-09-15T17:35:48.968Z,69.20
2017-09-15T17:38:16.620Z,69.00
2017-09-15T17:40:44.209Z,69.70
2017-09-15T17:43:12.541Z,70.00
2017-09-15T17:45:40.285Z,70.00
2017-09-15T17:48:07.892Z,70.10
2017-09-15T17:50:35.461Z,70.80
2017-09-15T17:53:03.921Z,70.90
2017-09-15T17:55:31.485Z,70.80
2017-09-15T17:57:59.056Z,71.10
2017-09-15T18:00:26.649Z,71.20
2017-09-15T18:02:54.272Z,71.50
2017-09-15T18:05:21.860Z,71.80
2017-09-15T18:07:50.704Z,72.70
2017-09-15T18:10:18.480Z,72.70
2017-09-15T18:12:46.154Z,73.50
2017-09-15T18:15:13.769Z,73.70
2017-09-15T18:17:41.361Z,73.90
2017-09-15T18:20:08.941Z,74.30
2017-09-15T18:22:36.765Z,74.60
2017-09-15T18:25:04.336Z,74.80
2017-09-15T18:27:31.900Z,74.90
2017-09-15T18:29:59.484Z,75.10
2017-09-15T18:32:27.144Z,75.20
2017-09-15T18:34:54.727Z,75.60
2017-09-15T18:37:23.056Z,77.00
2017-09-15T18:39:52.081Z,76.10
2017-09-15T18:42:21.152Z,76.60
2017-09-15T18:44:48.708Z,76.50
2017-09-15T18:47:16.312Z,76.70
2017-09-15T18:49:44.660Z,76.60
2017-09-15T18:52:12.228Z,76.60
2017-09-15T18:54:40.047Z,76.70
2017-09-15T18:57:07.617Z,76.70
2017-09-15T18:59:35.232Z,77.00
2017-09-15T19:02:02.988Z,76.90
2017-09-15T19:04:30.551Z,76.90
2017-09-15T19:06:58.941Z,76.30
2017-09-15T19:09:27.297Z,76.40
2017-09-15T19:11:54.872Z,76.40
2017-09-15T19:14:22.636Z,76.30
2017-09-15T19:16:51.012Z,76.40
2017-09-15T19:19:18.718Z,76.40
2017-09-15T19:21:46.341Z,76.70
2017-09-15T19:24:13.957Z,77.00
2017-09-15T19:26:41.562Z,77.20
2017-09-15T19:29:09.151Z,77.40
2017-09-15T19:31:38.001Z,77.90
2017-09-15T19:34:05.606Z,77.90
2017-09-15T19:36:34.198Z,79.30
2017-09-15T19:39:01.765Z,79.20
2017-09-15T19:41:29.375Z,79.80
2017-09-15T19:43:56.965Z,79.90
2017-09-15T19:46:25.292Z,80.60
2017-09-15T19:48:53.180Z,80.60
2017-09-15T19:51:20.744Z,80.70
2017-09-15T19:53:48.316Z,82.00
2017-09-15T19:56:15.972Z,81.30
2017-09-15T19:58:43.528Z,81.40
2017-09-15T20:01:11.111Z,81.20
2017-09-15T20:03:39.485Z,81.80
2017-09-15T20:06:07.822Z,82.10
2017-09-15T20:08:35.389Z,82.00
2017-09-15T20:11:03.226Z,82.40
2017-09-15T20:13:30.787Z,82.60
2017-09-15T20:15:58.394Z,82.70
2017-09-15T20:18:25.976Z,83.20
2017-09-15T20:20:54.308Z,83.30
2017-09-15T20:23:22.563Z,83.20
2017-09-15T20:25:51.935Z,83.10
2017-09-15T20:28:20.342Z,83.20
2017-09-15T20:30:47.962Z,83.00
2017-09-15T20:33:15.521Z,83.10
2017-09-15T20:35:43.970Z,83.20
2017-09-15T20:38:11.533Z,82.50
2017-09-15T20:40:39.115Z,82.30
2017-09-15T20:43:06.748Z,82.80
2017-09-15T20:45:34.344Z,82.00
2017-09-15T20:48:01.947Z,82.00
2017-09-15T20:50:29.504Z,81.90
2017-09-15T20:52:57.232Z,82.00
2017-09-15T20:55:25.573Z,81.70
2017-09-15T20:57:53.140Z,81.70
2017-09-15T21:00:20.724Z,81.30
2017-09-15T21:02:48.290Z,80.80
2017-09-15T21:05:15.876Z,80.90
2017-09-15T21:07:44.246Z,81.00
2017-09-15T21:10:12.705Z,81.00
2017-09-15T21:12:40.276Z,80.90
2017-09-15T21:15:07.841Z,81.00
2017-09-15T21:17:36.201Z,81.40
2017-09-15T21:20:03.823Z,81.30
2017-09-15T21:22:31.437Z,81.80
2017-09-15T21:24:59.020Z,82.10
2017-09-15T21:27:27.355Z,82.30
2017-09-15T21:29:54.949Z,82.30
2017-09-15T21:32:22.508Z,83.20
2017-09-15T21:34:50.305Z,83.80
2017-09-15T21:37:17.920Z,83.90
2017-09-15T21:39:45.475Z,84.20
2017-09-15T21:42:13.037Z,84.40
2017-09-15T21:44:40.628Z,85.00
2017-09-15T21:47:08.956Z,85.10
2017-09-15T21:49:36.538Z,85.00
2017-09-15T21:52:04.864Z,84.90
2017-09-15T21:54:32.453Z,85.00
2017-09-15T21:57:00.016Z,84.90
2017-09-15T21:59:27.809Z,84.70
2017-09-15T22:01:56.136Z,84.60
2017-09-15T22:04:29.432Z,84.70
2017-09-15T22:06:56.992Z,84.70
2017-09-15T22:09:24.552Z,84.50
2017-09-15T22:11:52.773Z,84.90
2017-09-15T22:14:20.333Z,85.30
2017-09-15T22:16:47.921Z,85.50
2017-09-15T22:19:16.251Z,85.10
2017-09-15T22:21:44.044Z,85.00
2017-09-15T22:24:11.610Z,85.90
2017-09-15T22:26:39.165Z,87.00
2017-09-15T22:29:06.764Z,86.00
2017-09-15T22:31:34.327Z,86.10
2017-09-15T22:34:01.948Z,86.20
2017-09-15T22:36:29.547Z,86.20
2017-09-15T22:38:57.105Z,85.90
2017-09-15T22:41:24.668Z,87.00
2017-09-15T22:46:19.661Z,86.90
2017-09-15T22:48:48.025Z,87.50
2017-09-15T22:51:15.585Z,86.90
2017-09-15T22:53:44.651Z,86.70
2017-09-15T22:56:12.248Z,86.70
2017-09-15T22:58:39.810Z,86.60
2017-09-15T23:01:07.412Z,87.00
2017-09-15T23:03:34.968Z,87.20
2017-09-15T23:06:02.557Z,86.90
2017-09-15T23:08:30.117Z,87.00
2017-09-15T23:10:57.870Z,87.90
2017-09-15T23:13:25.428Z,88.10
2017-09-15T23:15:52.984Z,88.20
2017-09-15T23:18:20.803Z,88.20
2017-09-15T23:20:48.360Z,87.80
2017-09-15T23:23:15.940Z,87.50
2017-09-15T23:25:44.304Z,87.70
2017-09-15T23:28:11.960Z,87.70
2017-09-15T23:30:39.524Z,87.70
2017-09-15T23:33:08.031Z,89.10
2017-09-15T23:35:36.355Z,89.00
2017-09-15T23:38:03.924Z,88.90
2017-09-15T23:40:31.608Z,88.70
2017-09-15T23:42:59.172Z,88.00
2017-09-15T23:45:26.763Z,88.00
2017-09-15T23:47:54.324Z,88.80
2017-09-15T23:50:21.951Z,89.40
2017-09-15T23:52:50.949Z,90.00
2017-09-15T23:55:18.537Z,90.10
2017-09-15T23:57:46.900Z,89.70
